AirNav   Air Wisconsin Up To $57,000 Bonus
 
 975 users online  

68S Davenport Airport
Davenport, Washington, USA

GOING TO DAVENPORT?


FAA INFORMATION EFFECTIVE 02 JANUARY 2020

Location

FAA Identifier: 68S
Lat/Long: 47-39-12.8000N 118-10-07.6000W
47-39.213333N 118-10.126667W
47.6535556,-118.1687778
(estimated)
Elevation: 2426.9 ft. / 739.7 m (surveyed)
Variation: 20E (1985)
From city: 1 mile W of DAVENPORT, WA
Time zone: UTC -8 (UTC -7 during Daylight Saving Time)
Zip code: 99122

Airport Operations

Airport use: Open to the public
Activation date: 12/1945
Control tower: no
ARTCC: SEATTLE CENTER
FSS: SEATTLE FLIGHT SERVICE STATION
NOTAMs facility: SEA (NOTAM-D service available)
Attendance: ON CALL
Wind indicator: lighted
Segmented circle: no
Beacon: white-green (lighted land airport)
Operates sunset to sunrise.

Airport Communications

CTAF: 122.9

Nearby radio navigation aids

VOR radial/distance  VOR name  Freq  Var
GEGr263/22.6SPOKANE VORTAC115.5021E

 
NDB name  Hdg/Dist  Freq  Var  ID
DEER PARK222/35.436516EDPY -.. .--. -.--

Airport Services

Fuel available: 100LL
FUEL 24 HR CREDIT CARD SVC AVBL.
Parking: tiedowns
Airframe service: NONE
Bottled oxygen: NONE
Bulk oxygen: NONE

Runway Information

Runway 5/23

Dimensions: 2740 x 50 ft. / 835 x 15 m
Surface: asphalt, in fair condition
Runway edge lights: medium intensity
Runway edge markings: MARKINGS ARE FADED.
RUNWAY 5  RUNWAY 23
Latitude: 47-39.112307N47-39.241388N
Longitude: 118-10.481748W118-09.842680W
Elevation: 2417.8 ft.2418.1 ft.
Traffic pattern: leftright
Runway heading: 053 magnetic, 073 true233 magnetic, 253 true
Markings: basic, in poor conditionbasic, in poor condition
Touchdown point: yes, no lightsyes, no lights
Obstructions: none37 ft. tree, 1001 ft. from runway, 21:1 slope to clear

Airport Ownership and Management from official FAA records

Ownership: Publicly-owned
Owner: CITY OF DAVENPORT
PO BOX 26
DAVENPORT, WA 99122
Phone 509-725-4352
Manager: STEVE GOEMMEL
P.O. BOX 26
DAVENPORT, WA 99122
Phone 509-725-4352

Airport Operational Statistics

Aircraft based on the field: 14
Single engine airplanes: 12
Ultralights: 2
    
Aircraft operations: avg 134/week *
71% local general aviation
29% transient general aviation
* for 12-month period ending 31 December 2018

Additional Remarks

MON-FRI 8:00 AM TO 5:00 PM, CALL OFFICE NUMBER, 509-725-4352. AFTER HOURS CALL 509-721-0069.
FOR CD CTC SPOKANE APCH AT 509-742-2522

Instrument Procedures

There are no published instrument procedures at 68S.

Some nearby airports with instrument procedures:

KSKA - Fairchild Air Force Base (21 nm E)
2S8 - Wilbur Airport (24 nm W)
KGEG - Spokane International Airport (26 nm E)
KSFF - Felts Field Airport (34 nm E)
KDEW - Deer Park Airport (35 nm NE)
 
Loc | Ops | Rwys | IFR | FBO | Links
Com | Nav | Svcs | Stats | Notes
Area around 68S (Davenport Airport)
 
Road maps at: MapQuest Bing Google
 
Aerial photo
WARNING: Photo may not be current or correct
Aerial photo of 68S (Davenport Airport)
Photo by David Wyatt
Photo taken 22-Jun-2007
looking northeast down runway 5

Do you have a better or more recent aerial photo of Davenport Airport that you would like to share? If so, please send us your photo.

 
Sectional chart

 
Airport distance calculator
Flying to Davenport Airport? Find the distance to fly.

From to 68S

Sunrise and sunset
Times for 24-Jan-2020
 Local
(UTC-8)
 Zulu
(UTC)
Morning civil twilight06:5614:56
Sunrise07:3015:30
Sunset16:4000:40
Evening civil twilight17:1401:14

Current date and time
Zulu (UTC)  24-Jan-2020 12:43:04
Local (UTC-8)  24-Jan-2020 04:43:04
 
METAR
KSKA 
21nm E 
241208Z 15008KT 10SM -RA SCT016 BKN026 OVC036 03/03 A2988 RMK AO2A CIG 026V035 BKN V SCT CIG 005 RWY05 SLP136 $
KGEG 
26nm E 
241214Z 15010KT 9SM -RA SCT018 BKN023 OVC038 04/02 A2989 RMK AO2 P0001 T00390022
KSFF 
34nm E 
241211Z AUTO 00000KT 1 3/4SM -RA BR FEW025 BKN035 OVC045 04/03 A2991 RMK AO2 VIS 3/4V5 P0000 T00440033
KDEW 
35nm NE 
241159Z AUTO 07004KT 7SM -RA FEW008 BKN020 OVC034 03/02 A2990 RMK AO2 P0000 T00280017
TAF
KSKA 
21nm E 
241200Z 2412/2517 15009KT 6000 -RA BR BKN020 OVC025 620409 QNH2991INS BECMG 2417/2418 20012G18KT 9999 NSW SCT008 OVC015 QNH2992INS BECMG 2505/2506 21008KT 0800 FG OVC002 QNH3004INS BECMG 2514/2515 08005KT 0800 NSW BKN004 QNH3005INS TX07/2423Z TN03/2412Z
KGEG 
26nm E 
241138Z 2412/2512 17006KT 6SM -RA BR OVC030 FM241400 18006KT 6SM BR BKN007 OVC015 TEMPO 2414/2417 3SM -RA BR FM241700 19007KT 3SM BR OVC006 FM242000 21011KT P6SM BKN015 FM250600 18006KT 3SM BR OVC006
NOTAMs
Click for the latest NOTAMs
NOTAMs are issued by the DoD/FAA and will open in a separate window not controlled by AirNav.

 

 
 

FBO, Fuel Providers, and Aircraft Ground Support

  
 Business Name 
 
 Contact 
 
 Services / Description 
 
Fuel Prices
 
Comments
  
 Davenport Municipal Airport
509-725-4352
509-725-0152
[web site]
[email]
Aviation fuel, Aircraft parking (ramp or tiedown), Hangar leasing / sales, Courtesy transportation, Pilots lounge / snooze room, Public telephone, Computerized weather, ...
 
Courtesy car  
 
More info about Davenport Municipal Airport
independent
100LL
SS $5.85 
 Updated 14-Jan-2020
 
   write
SS=Self service
Update Fuel Prices
 

Would you like to see your business listed on this page?

 If your business provides an interesting product or service to pilots, flight crews, aircraft, or users of the Davenport Airport, you should consider listing it here.  To start the listing process, click on the button below
 
Add a business
 

Other Pages about Davenport Airport

www.davenportwa.us/index.asp?SEC=13D2F483-532F-4112-A9DB-75D4B32F90A1&Type=B_BASIC
 
Update a link
 
Copyright © AirNav, LLC. All rights reserved. Privacy Policy  Contact